createdAt,value
2022-09-14T00:03:56.161Z,98923.06
2022-09-14T00:07:57.761Z,98913.91
2022-09-14T00:11:59.460Z,98914.13
2022-09-14T00:16:10.511Z,98920.25
2022-09-14T00:20:12.193Z,98913.31
2022-09-14T00:24:13.792Z,98911.03
2022-09-14T00:28:15.333Z,98908.75
2022-09-14T00:32:16.954Z,98914.66
2022-09-14T00:36:26.960Z,98911.41
2022-09-14T00:40:28.531Z,98910.41
2022-09-14T00:44:30.042Z,98907.13
2022-09-14T00:48:31.711Z,98906.47
2022-09-14T00:52:37.241Z,98905.31
2022-09-14T00:56:39.146Z,98884.78
2022-09-14T01:00:40.853Z,98861.97
2022-09-14T01:04:43.464Z,98855.25
2022-09-14T01:08:51.108Z,98861.00
2022-09-14T01:13:17.464Z,98869.50
2022-09-14T01:17:38.219Z,98873.47
2022-09-14T01:21:44.148Z,98881.00
2022-09-14T01:25:55.698Z,98886.75
2022-09-14T01:30:06.746Z,98886.56
2022-09-14T01:34:14.079Z,98867.34
2022-09-14T01:38:24.640Z,98864.72
2022-09-14T01:42:29.372Z,98858.63
2022-09-14T01:46:40.025Z,98855.03
2022-09-14T01:50:45.911Z,98848.13
2022-09-14T01:54:57.709Z,98848.63
2022-09-14T01:59:14.462Z,98858.13
2022-09-14T02:03:27.997Z,98858.78
2022-09-14T02:07:30.458Z,98865.19
2022-09-14T02:11:32.267Z,98854.03
2022-09-14T02:15:36.833Z,98841.88
2022-09-14T02:19:47.311Z,98826.78
2022-09-14T02:23:49.334Z,98825.97
2022-09-14T02:27:51.573Z,98835.50
2022-09-14T02:32:30.906Z,98839.44
2022-09-14T02:37:00.761Z,98836.78
2022-09-14T02:41:14.496Z,98827.94
2022-09-14T02:45:39.425Z,98819.56
2022-09-14T02:49:58.596Z,98807.06
2022-09-14T02:54:11.873Z,98797.91
2022-09-14T02:58:14.743Z,98783.94
2022-09-14T03:02:16.496Z,98775.94
2022-09-14T03:06:19.649Z,98776.56
2022-09-14T03:10:21.721Z,98782.81
2022-09-14T03:14:23.297Z,98784.28
2022-09-14T03:18:24.987Z,98784.75
2022-09-14T03:22:26.602Z,98783.47
2022-09-14T03:26:29.777Z,98787.06
2022-09-14T03:30:31.864Z,98787.06
2022-09-14T03:34:33.649Z,98781.97
2022-09-14T03:38:39.353Z,98773.94
2022-09-14T03:42:46.807Z,98777.88
2022-09-14T03:47:05.899Z,98774.59
2022-09-14T03:51:10.793Z,98762.44
2022-09-14T03:55:12.559Z,98742.44
2022-09-14T03:59:14.219Z,98730.47
2022-09-14T04:03:16.049Z,98729.16
2022-09-14T04:07:18.012Z,98738.16
2022-09-14T04:11:24.003Z,98735.69
2022-09-14T04:15:25.620Z,98741.91
2022-09-14T04:19:27.391Z,98739.13
2022-09-14T04:23:29.622Z,98735.38
2022-09-14T04:27:31.504Z,98738.16
2022-09-14T04:31:34.667Z,98742.91
2022-09-14T04:35:37.852Z,98741.75
2022-09-14T04:39:39.520Z,98753.72
2022-09-14T04:43:42.056Z,98744.19
2022-09-14T04:47:43.708Z,98737.50
2022-09-14T04:51:45.383Z,98745.06
2022-09-14T04:55:46.907Z,98751.28
2022-09-14T04:59:48.590Z,98740.44
2022-09-14T05:03:50.933Z,98740.13
2022-09-14T05:07:52.608Z,98736.19
2022-09-14T05:11:54.201Z,98733.72
2022-09-14T05:15:56.187Z,98729.28
2022-09-14T05:19:57.841Z,98724.22
2022-09-14T05:24:02.363Z,98730.09
2022-09-14T05:28:04.093Z,98726.84
2022-09-14T05:32:06.876Z,98722.91
2022-09-14T05:36:09.250Z,98738.31
2022-09-14T05:40:11.374Z,98749.97
2022-09-14T05:44:12.982Z,98751.09
2022-09-14T05:48:14.638Z,98747.81
2022-09-14T05:52:16.450Z,98741.91
2022-09-14T05:56:19.442Z,98738.16
2022-09-14T06:00:23.167Z,98730.13
2022-09-14T06:04:25.124Z,98732.75
2022-09-14T06:08:31.230Z,98727.69
2022-09-14T06:13:03.524Z,98715.38
2022-09-14T06:17:06.055Z,98706.00
2022-09-14T06:21:09.640Z,98705.53
2022-09-14T06:29:42.235Z,98697.97
2022-09-14T06:33:47.428Z,98689.47
2022-09-14T06:37:48.888Z,98708.13
2022-09-14T06:41:52.096Z,98716.34
2022-09-14T06:46:01.365Z,98737.19
2022-09-14T06:50:03.208Z,98754.75
2022-09-14T06:54:05.757Z,98751.47
2022-09-14T06:58:09.530Z,98740.97
2022-09-14T07:02:13.918Z,98735.72
2022-09-14T07:06:26.907Z,98736.03
2022-09-14T07:10:31.297Z,98749.16
2022-09-14T07:14:34.650Z,98750.13
2022-09-14T07:18:36.510Z,98735.31
2022-09-14T07:22:38.169Z,98729.06
2022-09-14T07:26:42.565Z,98717.03
2022-09-14T07:30:44.343Z,98715.03
2022-09-14T07:34:46.772Z,98716.25
2022-09-14T07:38:52.514Z,98706.47
2022-09-14T07:42:57.558Z,98729.63
2022-09-14T07:46:59.443Z,98736.97
2022-09-14T07:51:07.993Z,98741.47
2022-09-14T07:55:12.400Z,98745.50
2022-09-14T07:59:35.185Z,98741.56
2022-09-14T08:03:36.466Z,98738.78
2022-09-14T08:07:38.552Z,98727.78
2022-09-14T08:11:40.341Z,98739.53
2022-09-14T08:15:41.878Z,98727.16
2022-09-14T08:19:43.753Z,98743.22
2022-09-14T08:23:45.463Z,98749.97
2022-09-14T08:27:47.005Z,98753.56
2022-09-14T08:31:51.651Z,98759.44
2022-09-14T08:35:57.963Z,98769.69
2022-09-14T08:40:00.003Z,98767.75
2022-09-14T08:44:20.246Z,98783.81
2022-09-14T08:48:31.368Z,98801.22
2022-09-14T08:52:37.410Z,98805.13
2022-09-14T08:56:45.099Z,98809.28
2022-09-14T09:00:49.946Z,98819.03
2022-09-14T09:05:20.811Z,98817.31
2022-09-14T09:09:46.421Z,98809.88
2022-09-14T09:13:50.780Z,98792.72
2022-09-14T09:18:07.703Z,98796.56
2022-09-14T09:22:18.659Z,98803.59
2022-09-14T09:26:29.213Z,98788.16
2022-09-14T09:30:31.090Z,98779.47
2022-09-14T09:34:35.442Z,98774.06
2022-09-14T09:39:06.180Z,98787.16
2022-09-14T09:43:12.098Z,98786.63
2022-09-14T09:47:13.888Z,98785.88
2022-09-14T09:51:26.841Z,98782.50
2022-09-14T09:55:38.566Z,98768.38
2022-09-14T09:59:44.384Z,98757.44
2022-09-14T10:04:01.788Z,98744.88
2022-09-14T10:08:11.235Z,98728.31
2022-09-14T10:12:15.988Z,98719.28
2022-09-14T10:16:20.662Z,98708.50
2022-09-14T10:20:24.535Z,98694.53
2022-09-14T10:24:27.365Z,98691.06
2022-09-14T10:28:34.324Z,98700.69
2022-09-14T10:32:37.957Z,98701.59
2022-09-14T10:36:48.064Z,98701.09
2022-09-14T10:40:56.879Z,98694.44
2022-09-14T10:45:14.613Z,98682.00
2022-09-14T10:49:21.488Z,98674.03
2022-09-14T10:53:58.086Z,98669.72
2022-09-14T10:58:44.356Z,98663.63
2022-09-14T11:03:00.489Z,98654.84
2022-09-14T11:07:14.105Z,98659.81
2022-09-14T11:11:37.308Z,98662.56
2022-09-14T11:15:46.470Z,98667.38
2022-09-14T11:20:03.179Z,98660.69
2022-09-14T11:24:16.598Z,98668.72
2022-09-14T11:28:24.484Z,98657.13
2022-09-14T11:32:33.500Z,98659.88
2022-09-14T11:36:44.628Z,98653.94
2022-09-14T11:40:52.639Z,98647.69
2022-09-14T11:45:02.563Z,98640.63
2022-09-14T11:49:17.252Z,98640.00
2022-09-14T11:53:19.505Z,98640.72
2022-09-14T11:57:25.320Z,98635.75
2022-09-14T12:01:36.937Z,98627.84
2022-09-14T12:05:38.706Z,98616.16
2022-09-14T12:09:40.557Z,98622.09
2022-09-14T12:13:42.160Z,98619.22
2022-09-14T12:17:45.338Z,98610.13
2022-09-14T12:21:47.285Z,98618.38
2022-09-14T12:25:57.701Z,98594.13
2022-09-14T12:29:59.735Z,98602.28
2022-09-14T12:34:21.683Z,98605.72
2022-09-14T12:38:29.369Z,98625.88
2022-09-14T12:42:33.658Z,98629.63
2022-09-14T12:46:38.631Z,98625.19
2022-09-14T12:50:41.256Z,98623.69
2022-09-14T12:54:51.992Z,98639.50
2022-09-14T12:59:03.374Z,98628.56
2022-09-14T13:03:18.968Z,98620.28
2022-09-14T13:07:23.057Z,98608.19
2022-09-14T13:11:32.141Z,98604.78
2022-09-14T13:15:38.127Z,98611.63
2022-09-14T13:19:39.705Z,98597.78
2022-09-14T13:23:42.642Z,98565.41
2022-09-14T13:27:49.232Z,98545.75
2022-09-14T13:44:45.406Z,98574.03
2022-09-14T13:48:47.292Z,98572.44
2022-09-14T13:53:01.767Z,98553.25
2022-09-14T13:57:19.437Z,98555.31
2022-09-14T14:01:28.774Z,98560.38
2022-09-14T14:05:33.404Z,98551.25
2022-09-14T14:09:42.699Z,98533.84
2022-09-14T14:13:44.279Z,98530.69
2022-09-14T14:17:45.922Z,98532.69
2022-09-14T14:21:49.134Z,98523.91
2022-09-14T14:25:54.505Z,98527.44
2022-09-14T14:29:56.634Z,98518.72
2022-09-14T14:33:59.623Z,98520.56
2022-09-14T14:38:01.265Z,98531.59
2022-09-14T14:42:03.026Z,98532.53
2022-09-14T14:46:07.531Z,98516.47
2022-09-14T14:50:17.840Z,98487.50
2022-09-14T14:54:19.775Z,98480.59
2022-09-14T14:58:22.092Z,98489.66
2022-09-14T15:02:23.769Z,98498.00
2022-09-14T15:06:27.607Z,98494.66
2022-09-14T15:10:30.611Z,98474.53
2022-09-14T15:14:32.145Z,98480.94
2022-09-14T15:18:33.668Z,98482.22
2022-09-14T15:22:36.425Z,98487.56
2022-09-14T15:26:38.150Z,98481.53
2022-09-14T15:30:43.083Z,98491.38
2022-09-14T15:34:44.716Z,98492.13
2022-09-14T15:38:46.323Z,98484.97
2022-09-14T15:42:47.888Z,98485.78
2022-09-14T15:46:50.022Z,98493.66
2022-09-14T15:50:51.688Z,98493.91
2022-09-14T15:54:54.716Z,98492.88
2022-09-14T15:59:01.015Z,98493.16
2022-09-14T16:03:03.781Z,98493.44
2022-09-14T16:07:09.958Z,98490.13
2022-09-14T16:11:13.358Z,98490.50
2022-09-14T16:15:16.398Z,98494.09
2022-09-14T16:19:18.060Z,98489.34
2022-09-14T16:23:19.637Z,98498.72
2022-09-14T16:27:21.910Z,98518.84
2022-09-14T16:31:38.196Z,98529.94
2022-09-14T16:35:39.803Z,98527.84
2022-09-14T16:39:41.833Z,98517.59
2022-09-14T16:43:43.983Z,98524.47
2022-09-14T16:47:45.571Z,98532.31
2022-09-14T16:51:47.317Z,98532.09
2022-09-14T16:55:48.826Z,98531.50
2022-09-14T16:59:50.363Z,98523.22
2022-09-14T17:03:53.792Z,98524.63
2022-09-14T17:07:58.355Z,98521.16
2022-09-14T17:12:00.252Z,98508.78
2022-09-14T17:16:05.512Z,98515.78
2022-09-14T17:20:07.691Z,98497.69
2022-09-14T17:24:10.374Z,98481.81
2022-09-14T17:28:11.885Z,98489.19
2022-09-14T17:32:15.224Z,98489.47
2022-09-14T17:36:16.935Z,98488.28
2022-09-14T17:40:19.179Z,98492.81
2022-09-14T17:44:20.868Z,98502.44
2022-09-14T17:48:23.743Z,98516.66
2022-09-14T17:52:25.435Z,98511.28
2022-09-14T17:56:28.823Z,98528.72
2022-09-14T18:00:30.488Z,98546.41
2022-09-14T18:04:32.076Z,98572.94
2022-09-14T18:08:34.475Z,98576.41
2022-09-14T18:12:39.257Z,98583.84
2022-09-14T18:16:41.635Z,98604.91
2022-09-14T18:20:45.112Z,98598.69
2022-09-14T18:24:46.807Z,98606.28
2022-09-14T18:28:50.704Z,98600.44
2022-09-14T18:32:52.934Z,98609.19
2022-09-14T18:36:56.564Z,98608.59
2022-09-14T18:41:08.956Z,98598.16
2022-09-14T18:45:10.767Z,98592.97
2022-09-14T18:49:12.829Z,98607.78
2022-09-14T18:53:14.332Z,98610.59
2022-09-14T18:57:17.730Z,98605.25
2022-09-14T19:01:19.453Z,98621.16
2022-09-14T19:05:22.638Z,98641.19
2022-09-14T19:09:24.265Z,98645.28
2022-09-14T19:13:26.058Z,98651.03
2022-09-14T19:17:30.101Z,98646.63
2022-09-14T19:21:33.088Z,98640.88
2022-09-14T19:25:39.253Z,98638.59
2022-09-14T19:29:40.926Z,98624.66
2022-09-14T19:33:45.690Z,98625.66
2022-09-14T19:37:47.499Z,98624.03
2022-09-14T19:41:50.616Z,98627.97
2022-09-14T19:45:52.244Z,98627.47
2022-09-14T19:49:53.846Z,98638.63
2022-09-14T19:53:57.538Z,98646.16
2022-09-14T19:57:59.273Z,98660.75
2022-09-14T20:02:00.998Z,98658.44
2022-09-14T20:06:06.156Z,98650.91
2022-09-14T20:10:08.520Z,98642.22
2022-09-14T20:14:14.353Z,98637.97
2022-09-14T20:18:15.936Z,98632.69
2022-09-14T20:22:17.478Z,98628.28
2022-09-14T20:26:19.064Z,98650.56
2022-09-14T20:30:20.681Z,98651.75
2022-09-14T20:34:22.619Z,98654.53
2022-09-14T20:38:24.141Z,98666.16
2022-09-14T20:42:25.733Z,98667.97
2022-09-14T20:46:31.836Z,98682.88
2022-09-14T20:50:35.377Z,98683.19
2022-09-14T20:54:37.073Z,98683.84
2022-09-14T20:58:39.123Z,98685.59
2022-09-14T21:02:41.099Z,98672.50
2022-09-14T21:06:48.718Z,98674.47
2022-09-14T21:10:50.367Z,98673.44
2022-09-14T21:14:52.058Z,98677.09
2022-09-14T21:18:57.355Z,98672.63
2022-09-14T21:22:58.883Z,98668.38
2022-09-14T21:27:00.675Z,98671.38
2022-09-14T21:31:17.825Z,98673.03
2022-09-14T21:35:19.869Z,98675.97
2022-09-14T21:39:25.078Z,98657.94
2022-09-14T21:43:27.531Z,98660.59
2022-09-14T21:47:29.097Z,98661.41
2022-09-14T21:51:33.880Z,98666.47
2022-09-14T21:55:42.226Z,98655.34
2022-09-14T21:59:43.770Z,98660.91
2022-09-14T22:03:45.365Z,98651.22
2022-09-14T22:07:46.999Z,98649.44
2022-09-14T22:11:49.058Z,98652.53
2022-09-14T22:15:50.717Z,98660.09
2022-09-14T22:19:55.000Z,98661.41
2022-09-14T22:23:59.466Z,98666.63
2022-09-14T22:28:01.092Z,98656.00
2022-09-14T22:32:03.331Z,98643.69
2022-09-14T22:36:05.194Z,98655.03
2022-09-14T22:40:07.353Z,98660.41
2022-09-14T22:44:11.163Z,98667.00
2022-09-14T22:48:12.681Z,98663.53
2022-09-14T22:52:14.488Z,98673.53
2022-09-14T22:56:25.926Z,98669.44
2022-09-14T23:00:27.571Z,98665.50
2022-09-14T23:04:29.091Z,98668.78
2022-09-14T23:08:31.840Z,98681.75
2022-09-14T23:12:33.413Z,98677.63
2022-09-14T23:16:35.088Z,98684.84
2022-09-14T23:20:38.331Z,98682.69
2022-09-14T23:24:39.860Z,98672.06
2022-09-14T23:28:41.486Z,98669.63
2022-09-14T23:32:43.143Z,98657.81
2022-09-14T23:36:44.682Z,98665.16
2022-09-14T23:40:46.275Z,98652.38
2022-09-14T23:44:47.837Z,98661.91
2022-09-14T23:48:50.156Z,98665.97
2022-09-14T23:52:57.325Z,98662.53
2022-09-14T23:56:58.919Z,98661.41
